sensor_id;sensor_type;location;lat;lon;timestamp;pressure;altitude;pressure_sealevel;temperature;humidity
63096;BME280;49184;55.596;37.770;2022-10-01T05:55:18;99605.16;;;16.06;80.16
63096;BME280;49184;55.596;37.770;2022-10-01T05:57:53;99606.63;;;16.04;80.03
63096;BME280;49184;55.596;37.770;2022-10-01T06:00:19;99606.06;;;16.10;79.97
63096;BME280;49184;55.596;37.770;2022-10-01T06:02:51;99601.25;;;16.07;80.00
63096;BME280;49184;55.596;37.770;2022-10-01T06:05:18;99598.13;;;16.09;79.94
63096;BME280;49184;55.596;37.770;2022-10-01T06:07:45;99597.81;;;16.10;80.21
63096;BME280;49184;55.596;37.770;2022-10-01T06:10:11;99590.81;;;16.13;80.12
63096;BME280;49184;55.596;37.770;2022-10-01T06:12:38;99584.69;;;16.07;80.30
63096;BME280;49184;55.596;37.770;2022-10-01T06:15:04;99590.44;;;16.14;80.06
63096;BME280;49184;55.596;37.770;2022-10-01T06:17:32;99586.09;;;16.13;79.86
63096;BME280;49184;55.596;37.770;2022-10-01T06:19:58;99588.16;;;16.16;79.95
63096;BME280;49184;55.596;37.770;2022-10-01T06:22:25;99591.94;;;16.12;80.03
63096;BME280;49184;55.596;37.770;2022-10-01T06:24:51;99587.78;;;16.06;80.21
63096;BME280;49184;55.596;37.770;2022-10-01T06:27:17;99586.19;;;16.05;80.42
63096;BME280;49184;55.596;37.770;2022-10-01T06:29:43;99581.47;;;16.05;80.60
63096;BME280;49184;55.596;37.770;2022-10-01T06:32:09;99573.56;;;16.04;80.76
63096;BME280;49184;55.596;37.770;2022-10-01T06:34:38;99565.72;;;16.06;80.59
63096;BME280;49184;55.596;37.770;2022-10-01T06:37:05;99575.75;;;16.10;80.49
63096;BME280;49184;55.596;37.770;2022-10-01T06:39:32;99570.22;;;16.10;80.59
63096;BME280;49184;55.596;37.770;2022-10-01T06:41:58;99578.94;;;16.12;80.78
63096;BME280;49184;55.596;37.770;2022-10-01T06:44:24;99554.25;;;16.04;80.80
63096;BME280;49184;55.596;37.770;2022-10-01T06:46:51;99565.50;;;16.11;80.83
63096;BME280;49184;55.596;37.770;2022-10-01T06:49:17;99554.00;;;16.09;80.60
63096;BME280;49184;55.596;37.770;2022-10-01T06:51:45;99574.13;;;16.21;80.76
63096;BME280;49184;55.596;37.770;2022-10-01T06:54:30;99566.91;;;16.17;80.79
63096;BME280;49184;55.596;37.770;2022-10-01T06:56:56;99566.66;;;16.22;80.83
63096;BME280;49184;55.596;37.770;2022-10-01T06:59:22;99566.66;;;16.22;80.91
63096;BME280;49184;55.596;37.770;2022-10-01T07:01:49;99568.97;;;16.20;80.86
63096;BME280;49184;55.596;37.770;2022-10-01T07:04:15;99561.50;;;16.20;80.86
63096;BME280;49184;55.596;37.770;2022-10-01T07:06:41;99558.16;;;16.15;80.99
63096;BME280;49184;55.596;37.770;2022-10-01T07:09:07;99564.94;;;16.17;80.65
63096;BME280;49184;55.596;37.770;2022-10-01T07:11:35;99559.53;;;16.21;80.93
63096;BME280;49184;55.596;37.770;2022-10-01T07:14:07;99558.84;;;16.24;80.79
63096;BME280;49184;55.596;37.770;2022-10-01T07:16:33;99544.03;;;16.16;80.89
63096;BME280;49184;55.596;37.770;2022-10-01T07:18:59;99547.44;;;16.26;80.91
63096;BME280;49184;55.596;37.770;2022-10-01T07:21:25;99544.13;;;16.32;80.85
63096;BME280;49184;55.596;37.770;2022-10-01T07:23:51;99547.03;;;16.36;80.63
63096;BME280;49184;55.596;37.770;2022-10-01T07:26:17;99546.06;;;16.32;80.64
63096;BME280;49184;55.596;37.770;2022-10-01T07:28:44;99524.25;;;16.14;80.64
63096;BME280;49184;55.596;37.770;2022-10-01T07:31:11;99537.69;;;16.28;81.11
63096;BME280;49184;55.596;37.770;2022-10-01T07:33:38;99524.94;;;16.24;80.80
63096;BME280;49184;55.596;37.770;2022-10-01T07:36:05;99536.78;;;16.36;80.76
63096;BME280;49184;55.596;37.770;2022-10-01T07:41:01;99519.88;;;16.26;80.41
63096;BME280;49184;55.596;37.770;2022-10-01T07:43:29;99522.41;;;16.31;80.67
63096;BME280;49184;55.596;37.770;2022-10-01T07:45:56;99523.19;;;16.31;80.70
63096;BME280;49184;55.596;37.770;2022-10-01T07:48:23;99534.72;;;16.33;80.82
63096;BME280;49184;55.596;37.770;2022-10-01T07:50:49;99502.41;;;16.21;80.89
63096;BME280;49184;55.596;37.770;2022-10-01T07:53:17;99493.69;;;16.19;80.93
63096;BME280;49184;55.596;37.770;2022-10-01T07:55:44;99519.16;;;16.41;80.69
63096;BME280;49184;55.596;37.770;2022-10-01T07:58:11;99491.25;;;16.30;80.34
63096;BME280;49184;55.596;37.770;2022-10-01T08:00:37;99483.69;;;16.27;80.45
63096;BME280;49184;55.596;37.770;2022-10-01T08:03:04;99497.00;;;16.37;80.32
63096;BME280;49184;55.596;37.770;2022-10-01T08:05:34;99474.47;;;16.35;80.49
63096;BME280;49184;55.596;37.770;2022-10-01T08:08:04;99505.69;;;16.52;80.27
63096;BME280;49184;55.596;37.770;2022-10-01T08:10:33;99466.66;;;16.37;80.50
63096;BME280;49184;55.596;37.770;2022-10-01T08:13:05;99473.19;;;16.45;80.59
63096;BME280;49184;55.596;37.770;2022-10-01T08:15:34;99485.69;;;16.55;80.78
63096;BME280;49184;55.596;37.770;2022-10-01T08:18:01;99479.25;;;16.51;80.87
63096;BME280;49184;55.596;37.770;2022-10-01T08:20:28;99484.09;;;16.54;80.98
63096;BME280;49184;55.596;37.770;2022-10-01T08:23:00;99485.47;;;16.60;80.78
63096;BME280;49184;55.596;37.770;2022-10-01T08:25:27;99480.03;;;16.63;80.71
63096;BME280;49184;55.596;37.770;2022-10-01T08:27:57;99473.94;;;16.70;80.74
63096;BME280;49184;55.596;37.770;2022-10-01T08:30:25;99462.69;;;16.63;80.12
63096;BME280;49184;55.596;37.770;2022-10-01T08:32:54;99468.88;;;16.72;80.72
63096;BME280;49184;55.596;37.770;2022-10-01T08:35:22;99467.94;;;16.68;80.50
63096;BME280;49184;55.596;37.770;2022-10-01T08:37:48;99466.78;;;16.81;79.95
63096;BME280;49184;55.596;37.770;2022-10-01T08:40:15;99473.56;;;16.84;80.19
63096;BME280;49184;55.596;37.770;2022-10-01T08:42:56;99442.63;;;16.78;79.92
63096;BME280;49184;55.596;37.770;2022-10-01T08:45:48;99464.56;;;16.87;79.77
63096;BME280;49184;55.596;37.770;2022-10-01T08:51:07;99433.41;;;16.86;79.60
63096;BME280;49184;55.596;37.770;2022-10-01T08:56:34;99441.97;;;16.97;79.80
63096;BME280;49184;55.596;37.770;2022-10-01T08:59:55;99443.56;;;16.98;79.90
63096;BME280;49184;55.596;37.770;2022-10-01T09:01:55;99442.44;;;16.99;79.96
63096;BME280;49184;55.596;37.770;2022-10-01T09:04:25;99447.25;;;17.02;79.69
63096;BME280;49184;55.596;37.770;2022-10-01T09:07:00;99436.22;;;17.02;79.60
63096;BME280;49184;55.596;37.770;2022-10-01T09:09:44;99436.91;;;17.15;79.92
63096;BME280;49184;55.596;37.770;2022-10-01T09:15:23;99436.63;;;17.04;79.48
63096;BME280;49184;55.596;37.770;2022-10-01T09:18:14;99435.75;;;17.00;79.48
63096;BME280;49184;55.596;37.770;2022-10-01T09:20:47;99426.09;;;16.94;79.51
63096;BME280;49184;55.596;37.770;2022-10-01T09:23:29;99406.84;;;16.82;79.54
63096;BME280;49184;55.596;37.770;2022-10-01T09:25:57;99432.53;;;16.98;79.54
63096;BME280;49184;55.596;37.770;2022-10-01T09:28:29;99434.25;;;17.03;79.53
63096;BME280;49184;55.596;37.770;2022-10-01T09:31:02;99410.00;;;16.96;79.58
63096;BME280;49184;55.596;37.770;2022-10-01T09:33:38;99410.53;;;17.02;79.78
63096;BME280;49184;55.596;37.770;2022-10-01T09:36:35;99414.03;;;16.99;79.80
63096;BME280;49184;55.596;37.770;2022-10-01T09:39:46;99390.22;;;16.94;79.68
63096;BME280;49184;55.596;37.770;2022-10-01T09:42:07;99409.47;;;17.06;80.08
63096;BME280;49184;55.596;37.770;2022-10-01T09:44:35;99400.75;;;17.04;79.66
63096;BME280;49184;55.596;37.770;2022-10-01T09:47:12;99406.00;;;17.09;79.89
63096;BME280;49184;55.596;37.770;2022-10-01T09:49:41;99396.56;;;17.10;79.86
63096;BME280;49184;55.596;37.770;2022-10-01T09:52:11;99400.66;;;17.17;80.08
63096;BME280;49184;55.596;37.770;2022-10-01T09:55:44;99368.13;;;17.10;79.97
63096;BME280;49184;55.596;37.770;2022-10-01T09:57:51;99362.25;;;17.11;79.71
63096;BME280;49184;55.596;37.770;2022-10-01T10:00:21;99382.41;;;17.28;79.64
63096;BME280;49184;55.596;37.770;2022-10-01T10:02:53;99373.94;;;17.21;79.66
63096;BME280;49184;55.596;37.770;2022-10-01T10:05:24;99380.00;;;17.26;79.90
63096;BME280;49184;55.596;37.770;2022-10-01T10:08:02;99370.47;;;17.24;79.50
63096;BME280;49184;55.596;37.770;2022-10-01T10:10:31;99353.97;;;17.27;79.54
63096;BME280;49184;55.596;37.770;2022-10-01T10:15:58;99342.59;;;17.29;79.75
63096;BME280;49184;55.596;37.770;2022-10-01T10:18:31;99337.22;;;17.36;79.90
63096;BME280;49184;55.596;37.770;2022-10-01T10:21:15;99341.13;;;17.35;79.76
63096;BME280;49184;55.596;37.770;2022-10-01T10:26:27;99335.88;;;17.30;79.89
63096;BME280;49184;55.596;37.770;2022-10-01T10:28:54;99334.00;;;17.34;79.86
63096;BME280;49184;55.596;37.770;2022-10-01T10:31:45;99331.69;;;17.36;79.91
63096;BME280;49184;55.596;37.770;2022-10-01T10:34:19;99321.34;;;17.33;79.82
63096;BME280;49184;55.596;37.770;2022-10-01T10:36:46;99326.16;;;17.36;79.72
63096;BME280;49184;55.596;37.770;2022-10-01T10:39:25;99333.91;;;17.46;79.46
63096;BME280;49184;55.596;37.770;2022-10-01T10:41:57;99336.22;;;17.44;78.91
63096;BME280;49184;55.596;37.770;2022-10-01T10:44:27;99319.41;;;17.33;79.09
63096;BME280;49184;55.596;37.770;2022-10-01T10:47:03;99332.31;;;17.45;78.12
63096;BME280;49184;55.596;37.770;2022-10-01T10:49:34;99328.63;;;17.57;77.59
63096;BME280;49184;55.596;37.770;2022-10-01T10:54:56;99329.50;;;17.61;77.56
63096;BME280;49184;55.596;37.770;2022-10-01T10:57:30;99329.41;;;17.73;77.10
63096;BME280;49184;55.596;37.770;2022-10-01T11:00:26;99327.88;;;17.76;77.57
63096;BME280;49184;55.596;37.770;2022-10-01T11:05:23;99320.41;;;18.12;76.19
63096;BME280;49184;55.596;37.770;2022-10-01T11:07:54;99295.69;;;18.03;77.66
63096;BME280;49184;55.596;37.770;2022-10-01T11:10:45;99304.41;;;18.44;77.33
63096;BME280;49184;55.596;37.770;2022-10-01T11:16:34;99305.66;;;18.46;74.59
63096;BME280;49184;55.596;37.770;2022-10-01T11:27:58;99287.59;;;18.52;74.34
63096;BME280;49184;55.596;37.770;2022-10-01T11:38:49;99279.72;;;18.54;74.56
63096;BME280;49184;55.596;37.770;2022-10-01T11:41:37;99267.16;;;18.61;73.40
63096;BME280;49184;55.596;37.770;2022-10-01T11:44:15;99268.19;;;18.72;73.97
63096;BME280;49184;55.596;37.770;2022-10-01T11:46:58;99249.66;;;18.76;73.88
63096;BME280;49184;55.596;37.770;2022-10-01T11:50:13;99244.44;;;18.71;73.16
63096;BME280;49184;55.596;37.770;2022-10-01T11:52:58;99244.94;;;18.76;71.74
63096;BME280;49184;55.596;37.770;2022-10-01T11:58:35;99245.97;;;18.68;71.96
63096;BME280;49184;55.596;37.770;2022-10-01T12:09:23;99219.47;;;18.25;74.06
63096;BME280;49184;55.596;37.770;2022-10-01T12:12:01;99240.94;;;18.31;75.03
63096;BME280;49184;55.596;37.770;2022-10-01T12:14:41;99241.59;;;18.25;75.10
63096;BME280;49184;55.596;37.770;2022-10-01T12:17:31;99236.06;;;18.25;75.63
63096;BME280;49184;55.596;37.770;2022-10-01T12:20:02;99225.94;;;18.33;75.99
63096;BME280;49184;55.596;37.770;2022-10-01T12:27:57;99213.41;;;18.39;76.66
63096;BME280;49184;55.596;37.770;2022-10-01T12:30:44;99204.59;;;18.33;76.94
63096;BME280;49184;55.596;37.770;2022-10-01T12:35:59;99207.34;;;18.33;76.52
63096;BME280;49184;55.596;37.770;2022-10-01T12:38:48;99204.59;;;18.33;77.15
63096;BME280;49184;55.596;37.770;2022-10-01T12:55:13;99192.75;;;18.55;76.95
63096;BME280;49184;55.596;37.770;2022-10-01T12:58:06;99188.16;;;18.67;76.39
63096;BME280;49184;55.596;37.770;2022-10-01T13:01:16;99190.19;;;18.70;76.34
63096;BME280;49184;55.596;37.770;2022-10-01T13:06:46;99172.72;;;18.66;75.33
63096;BME280;49184;55.596;37.770;2022-10-01T13:09:42;99178.31;;;18.69;75.80
63096;BME280;49184;55.596;37.770;2022-10-01T13:15:38;99163.06;;;18.56;75.49
63096;BME280;49184;55.596;37.770;2022-10-01T13:18:29;99161.00;;;18.49;75.16
63096;BME280;49184;55.596;37.770;2022-10-01T13:27:16;99166.84;;;18.44;75.11
63096;BME280;49184;55.596;37.770;2022-10-01T13:29:56;99162.06;;;18.41;75.00
63096;BME280;49184;55.596;37.770;2022-10-01T13:35:00;99159.63;;;18.40;75.25
63096;BME280;49184;55.596;37.770;2022-10-01T13:39:56;99154.78;;;18.33;75.67
63096;BME280;49184;55.596;37.770;2022-10-01T13:42:25;99159.47;;;18.29;76.04
63096;BME280;49184;55.596;37.770;2022-10-01T13:45:02;99152.19;;;18.21;75.58
63096;BME280;49184;55.596;37.770;2022-10-01T13:47:32;99158.22;;;18.26;75.93
63096;BME280;49184;55.596;37.770;2022-10-01T13:50:01;99160.06;;;18.19;75.61
63096;BME280;49184;55.596;37.770;2022-10-01T13:52:31;99154.53;;;18.19;76.20
63096;BME280;49184;55.596;37.770;2022-10-01T13:54:59;99154.03;;;18.13;76.32
63096;BME280;49184;55.596;37.770;2022-10-01T13:57:37;99149.63;;;18.08;77.02
63096;BME280;49184;55.596;37.770;2022-10-01T14:02:56;99157.41;;;18.03;77.04
63096;BME280;49184;55.596;37.770;2022-10-01T14:05:41;99135.44;;;17.91;76.78
63096;BME280;49184;55.596;37.770;2022-10-01T14:08:16;99148.78;;;17.85;76.55
63096;BME280;49184;55.596;37.770;2022-10-01T14:10:50;99139.19;;;17.79;76.77
63096;BME280;49184;55.596;37.770;2022-10-01T14:13:47;99142.53;;;17.88;76.92
63096;BME280;49184;55.596;37.770;2022-10-01T14:16:53;99123.44;;;17.83;76.93
63096;BME280;49184;55.596;37.770;2022-10-01T14:19:23;99123.06;;;17.84;76.99
63096;BME280;49184;55.596;37.770;2022-10-01T14:27:56;99103.56;;;17.58;74.86
63096;BME280;49184;55.596;37.770;2022-10-01T14:33:26;99086.00;;;17.47;77.22
63096;BME280;49184;55.596;37.770;2022-10-01T14:38:25;99082.72;;;17.41;77.88
63096;BME280;49184;55.596;37.770;2022-10-01T14:40:53;99070.50;;;17.23;77.50
63096;BME280;49184;55.596;37.770;2022-10-01T14:43:22;99090.34;;;17.28;77.52
63096;BME280;49184;55.596;37.770;2022-10-01T14:46:01;99093.25;;;17.16;78.00
63096;BME280;49184;55.596;37.770;2022-10-01T14:48:31;99078.00;;;17.03;77.98
63096;BME280;49184;55.596;37.770;2022-10-01T14:51:03;99080.53;;;17.11;78.70
63096;BME280;49184;55.596;37.770;2022-10-01T14:53:33;99081.34;;;17.12;79.19
63096;BME280;49184;55.596;37.770;2022-10-01T14:56:05;99081.16;;;17.05;79.69
63096;BME280;49184;55.596;37.770;2022-10-01T14:58:46;99073.84;;;16.93;79.99
63096;BME280;49184;55.596;37.770;2022-10-01T15:01:18;99040.13;;;16.68;80.04
63096;BME280;49184;55.596;37.770;2022-10-01T15:03:46;99071.78;;;16.90;80.73
63096;BME280;49184;55.596;37.770;2022-10-01T15:06:14;99061.31;;;16.80;81.19
63096;BME280;49184;55.596;37.770;2022-10-01T15:08:45;99059.34;;;16.80;81.72
63096;BME280;49184;55.596;37.770;2022-10-01T15:13:49;99067.00;;;16.71;81.08
63096;BME280;49184;55.596;37.770;2022-10-01T15:16:18;99022.72;;;16.48;81.28
63096;BME280;49184;55.596;37.770;2022-10-01T15:19:02;99024.34;;;16.49;81.32
63096;BME280;49184;55.596;37.770;2022-10-01T15:24:01;99036.41;;;16.60;81.51
63096;BME280;49184;55.596;37.770;2022-10-01T15:26:29;99041.47;;;16.58;81.73
63096;BME280;49184;55.596;37.770;2022-10-01T15:29:13;99030.34;;;16.55;81.61
63096;BME280;49184;55.596;37.770;2022-10-01T15:31:40;99031.00;;;16.48;81.20
63096;BME280;49184;55.596;37.770;2022-10-01T15:34:13;99015.53;;;16.43;81.40
63096;BME280;49184;55.596;37.770;2022-10-01T15:36:41;99013.94;;;16.42;80.93
63096;BME280;49184;55.596;37.770;2022-10-01T15:39:38;99021.56;;;16.49;81.03
63096;BME280;49184;55.596;37.770;2022-10-01T15:44:48;99015.59;;;16.47;81.17
63096;BME280;49184;55.596;37.770;2022-10-01T15:47:26;99017.34;;;16.55;81.66
63096;BME280;49184;55.596;37.770;2022-10-01T16:00:30;98983.78;;;16.69;79.01
63096;BME280;49184;55.596;37.770;2022-10-01T16:02:59;98989.13;;;16.62;79.45
63096;BME280;49184;55.596;37.770;2022-10-01T16:05:45;98988.16;;;16.54;79.70
63096;BME280;49184;55.596;37.770;2022-10-01T16:08:16;98967.13;;;16.46;80.00
63096;BME280;49184;55.596;37.770;2022-10-01T16:10:47;98969.88;;;16.46;80.25
63096;BME280;49184;55.596;37.770;2022-10-01T16:13:38;98971.66;;;16.38;80.59
63096;BME280;49184;55.596;37.770;2022-10-01T16:16:27;98976.53;;;16.45;81.21
63096;BME280;49184;55.596;37.770;2022-10-01T16:19:17;98968.63;;;16.43;81.92
63096;BME280;49184;55.596;37.770;2022-10-01T16:22:11;98960.53;;;16.35;82.26
63096;BME280;49184;55.596;37.770;2022-10-01T16:24:48;98936.38;;;16.28;82.32
63096;BME280;49184;55.596;37.770;2022-10-01T16:29:56;98950.03;;;16.40;82.62
63096;BME280;49184;55.596;37.770;2022-10-01T16:32:24;98947.19;;;16.37;82.93
63096;BME280;49184;55.596;37.770;2022-10-01T16:34:50;98940.16;;;16.39;83.21
63096;BME280;49184;55.596;37.770;2022-10-01T16:37:16;98937.13;;;16.44;82.91
63096;BME280;49184;55.596;37.770;2022-10-01T16:39:43;98924.91;;;16.45;82.58
63096;BME280;49184;55.596;37.770;2022-10-01T16:42:19;98920.47;;;16.41;82.13
63096;BME280;49184;55.596;37.770;2022-10-01T16:44:49;98908.94;;;16.35;82.17
63096;BME280;49184;55.596;37.770;2022-10-01T16:47:16;98910.16;;;16.38;81.69
63096;BME280;49184;55.596;37.770;2022-10-01T16:49:45;98894.66;;;16.30;81.68
63096;BME280;49184;55.596;37.770;2022-10-01T16:52:13;98894.34;;;16.35;81.62
63096;BME280;49184;55.596;37.770;2022-10-01T16:54:41;98897.91;;;16.35;81.39
63096;BME280;49184;55.596;37.770;2022-10-01T16:57:10;98901.25;;;16.44;81.31
63096;BME280;49184;55.596;37.770;2022-10-01T16:59:37;98898.56;;;16.48;80.74
63096;BME280;49184;55.596;37.770;2022-10-01T17:02:05;98901.31;;;16.48;80.67
63096;BME280;49184;55.596;37.770;2022-10-01T17:04:35;98893.50;;;16.50;80.43
63096;BME280;49184;55.596;37.770;2022-10-01T17:07:03;98871.56;;;16.38;80.19
63096;BME280;49184;55.596;37.770;2022-10-01T17:09:29;98878.38;;;16.44;80.21
63096;BME280;49184;55.596;37.770;2022-10-01T17:11:55;98879.56;;;16.43;80.89
63096;BME280;49184;55.596;37.770;2022-10-01T17:14:26;98867.28;;;16.40;80.39
63096;BME280;49184;55.596;37.770;2022-10-01T17:16:53;98834.53;;;16.39;80.17
63096;BME280;49184;55.596;37.770;2022-10-01T17:19:21;98853.34;;;16.53;80.65
63096;BME280;49184;55.596;37.770;2022-10-01T17:21:47;98848.91;;;16.48;80.77
63096;BME280;49184;55.596;37.770;2022-10-01T17:24:13;98845.41;;;16.51;80.72
63096;BME280;49184;55.596;37.770;2022-10-01T17:26:41;98847.00;;;16.52;80.81
63096;BME280;49184;55.596;37.770;2022-10-01T17:29:10;98843.03;;;16.50;81.10
63096;BME280;49184;55.596;37.770;2022-10-01T17:31:39;98842.25;;;16.49;81.09
63096;BME280;49184;55.596;37.770;2022-10-01T17:34:06;98836.28;;;16.47;81.29
63096;BME280;49184;55.596;37.770;2022-10-01T17:36:32;98827.06;;;16.39;81.43
63096;BME280;49184;55.596;37.770;2022-10-01T17:39:00;98827.06;;;16.39;81.72
63096;BME280;49184;55.596;37.770;2022-10-01T17:41:26;98825.91;;;16.40;81.57
63096;BME280;49184;55.596;37.770;2022-10-01T17:43:52;98813.69;;;16.41;81.73
63096;BME280;49184;55.596;37.770;2022-10-01T17:46:20;98814.94;;;16.44;81.92
63096;BME280;49184;55.596;37.770;2022-10-01T17:48:47;98806.94;;;16.39;81.98
63096;BME280;49184;55.596;37.770;2022-10-01T17:51:14;98812.91;;;16.41;82.37
63096;BME280;49184;55.596;37.770;2022-10-01T17:53:43;98795.56;;;16.40;82.61
63096;BME280;49184;55.596;37.770;2022-10-01T17:56:15;98783.28;;;16.38;82.79
63096;BME280;49184;55.596;37.770;2022-10-01T17:58:42;98782.09;;;16.39;82.94
63096;BME280;49184;55.596;37.770;2022-10-01T18:01:10;98781.69;;;16.37;83.01
63096;BME280;49184;55.596;37.770;2022-10-01T18:03:38;98787.63;;;16.39;83.23
63096;BME280;49184;55.596;37.770;2022-10-01T18:06:06;98780.53;;;16.38;83.13
63096;BME280;49184;55.596;37.770;2022-10-01T18:08:35;98777.03;;;16.41;83.11
63096;BME280;49184;55.596;37.770;2022-10-01T18:11:05;98767.97;;;16.40;83.42
63096;BME280;49184;55.596;37.770;2022-10-01T18:13:32;98756.94;;;16.40;83.30
63096;BME280;49184;55.596;37.770;2022-10-01T18:16:04;98752.88;;;16.34;83.54
63096;BME280;49184;55.596;37.770;2022-10-01T18:18:31;98738.56;;;16.29;83.57
63096;BME280;49184;55.596;37.770;2022-10-01T18:21:06;98743.38;;;16.32;83.72
63096;BME280;49184;55.596;37.770;2022-10-01T18:23:33;98744.25;;;16.36;83.59
63096;BME280;49184;55.596;37.770;2022-10-01T18:26:03;98729.63;;;16.35;84.00
63096;BME280;49184;55.596;37.770;2022-10-01T18:28:29;98733.22;;;16.36;84.04
63096;BME280;49184;55.596;37.770;2022-10-01T18:39:20;98702.19;;;16.42;84.43
63096;BME280;49184;55.596;37.770;2022-10-01T18:41:49;98704.53;;;16.40;84.42
63096;BME280;49184;55.596;37.770;2022-10-01T18:44:17;98706.16;;;16.45;84.34
63096;BME280;49184;55.596;37.770;2022-10-01T18:47:02;98706.91;;;16.42;84.60
63096;BME280;49184;55.596;37.770;2022-10-01T18:52:37;98702.88;;;16.36;85.54
63096;BME280;49184;55.596;37.770;2022-10-01T19:01:26;98699.22;;;16.32;86.44
63096;BME280;49184;55.596;37.770;2022-10-01T19:07:13;98691.84;;;16.36;86.88
63096;BME280;49184;55.596;37.770;2022-10-01T19:10:28;98692.25;;;16.38;86.36
63096;BME280;49184;55.596;37.770;2022-10-01T19:13:41;98699.09;;;16.25;87.22
63096;BME280;49184;55.596;37.770;2022-10-01T19:16:15;98702.53;;;16.18;88.04
63096;BME280;49184;55.596;37.770;2022-10-01T19:19:09;98699.78;;;16.18;88.50
63096;BME280;49184;55.596;37.770;2022-10-01T19:21:55;98704.78;;;16.12;89.67
63096;BME280;49184;55.596;37.770;2022-10-01T19:30:23;98673.59;;;16.08;87.95
63096;BME280;49184;55.596;37.770;2022-10-01T19:33:00;98674.75;;;16.07;89.45
63096;BME280;49184;55.596;37.770;2022-10-01T19:35:36;98661.25;;;16.02;87.91
63096;BME280;49184;55.596;37.770;2022-10-01T19:38:26;98668.59;;;16.14;88.04
63096;BME280;49184;55.596;37.770;2022-10-01T19:41:01;98668.94;;;16.12;87.68
63096;BME280;49184;55.596;37.770;2022-10-01T19:46:45;98663.56;;;16.19;87.82
63096;BME280;49184;55.596;37.770;2022-10-01T19:49:22;98658.47;;;16.21;87.49
63096;BME280;49184;55.596;37.770;2022-10-01T19:51:59;98658.06;;;16.19;87.21
63096;BME280;49184;55.596;37.770;2022-10-01T19:54:33;98650.63;;;16.24;87.46
63096;BME280;49184;55.596;37.770;2022-10-01T19:57:23;98649.78;;;16.19;86.94
63096;BME280;49184;55.596;37.770;2022-10-01T19:59:54;98640.78;;;16.23;86.84
63096;BME280;49184;55.596;37.770;2022-10-01T20:02:33;98636.41;;;16.21;86.24
63096;BME280;49184;55.596;37.770;2022-10-01T20:05:15;98640.69;;;16.19;86.21
63096;BME280;49184;55.596;37.770;2022-10-01T20:08:10;98632.78;;;16.17;85.91
63096;BME280;49184;55.596;37.770;2022-10-01T20:10:46;98626.50;;;16.17;85.28
63096;BME280;49184;55.596;37.770;2022-10-01T20:18:48;98608.72;;;16.14;85.07
63096;BME280;49184;55.596;37.770;2022-10-01T20:21:29;98607.06;;;16.10;84.91
63096;BME280;49184;55.596;37.770;2022-10-01T20:24:11;98605.66;;;16.19;85.09
63096;BME280;49184;55.596;37.770;2022-10-01T20:26:59;98600.25;;;16.27;84.61
63096;BME280;49184;55.596;37.770;2022-10-01T20:29:44;98591.13;;;16.23;84.36
63096;BME280;49184;55.596;37.770;2022-10-01T20:35:34;98594.97;;;16.18;84.69
63096;BME280;49184;55.596;37.770;2022-10-01T20:38:10;98589.47;;;16.18;84.55
63096;BME280;49184;55.596;37.770;2022-10-01T20:40:49;98592.16;;;16.14;84.41
63096;BME280;49184;55.596;37.770;2022-10-01T20:49:12;98584.06;;;16.02;83.94
63096;BME280;49184;55.596;37.770;2022-10-01T20:51:47;98585.06;;;16.13;83.82
63096;BME280;49184;55.596;37.770;2022-10-01T20:54:19;98573.38;;;16.20;83.97
63096;BME280;49184;55.596;37.770;2022-10-01T20:57:03;98585.69;;;16.26;83.90
63096;BME280;49184;55.596;37.770;2022-10-01T20:59:36;98583.34;;;16.28;83.81
63096;BME280;49184;55.596;37.770;2022-10-01T21:02:52;98582.72;;;16.15;84.02
63096;BME280;49184;55.596;37.770;2022-10-01T21:05:29;98579.84;;;16.08;84.14
63096;BME280;49184;55.596;37.770;2022-10-01T21:08:00;98567.00;;;15.93;84.69
63096;BME280;49184;55.596;37.770;2022-10-01T21:21:33;98576.28;;;15.85;86.06
63096;BME280;49184;55.596;37.770;2022-10-01T21:27:07;98574.25;;;15.82;86.12
63096;BME280;49184;55.596;37.770;2022-10-01T21:29:59;98577.34;;;15.77;86.12
63096;BME280;49184;55.596;37.770;2022-10-01T21:33:13;98567.16;;;15.61;86.19
63096;BME280;49184;55.596;37.770;2022-10-01T21:38:43;98569.00;;;15.54;86.81
63096;BME280;49184;55.596;37.770;2022-10-01T21:46:49;98562.41;;;15.39;87.32
63096;BME280;49184;55.596;37.770;2022-10-01T21:49:38;98578.19;;;15.42;87.29
63096;BME280;49184;55.596;37.770;2022-10-01T21:52:22;98568.94;;;15.31;87.15
63096;BME280;49184;55.596;37.770;2022-10-01T21:57:35;98562.25;;;15.32;86.75
63096;BME280;49184;55.596;37.770;2022-10-01T22:00:20;98565.88;;;15.36;86.60
63096;BME280;49184;55.596;37.770;2022-10-01T22:03:15;98568.63;;;15.36;86.40
63096;BME280;49184;55.596;37.770;2022-10-01T22:05:52;98582.78;;;15.34;86.16
63096;BME280;49184;55.596;37.770;2022-10-01T22:11:27;98573.56;;;15.26;86.19
63096;BME280;49184;55.596;37.770;2022-10-01T22:14:00;98574.72;;;15.25;85.63
63096;BME280;49184;55.596;37.770;2022-10-01T22:16:33;98585.31;;;15.23;85.72
63096;BME280;49184;55.596;37.770;2022-10-01T22:19:08;98584.50;;;15.23;85.96
63096;BME280;49184;55.596;37.770;2022-10-01T22:21:44;98580.88;;;15.19;85.91
63096;BME280;49184;55.596;37.770;2022-10-01T22:24:20;98572.84;;;15.10;85.98
63096;BME280;49184;55.596;37.770;2022-10-01T22:27:11;98580.00;;;15.15;85.78
63096;BME280;49184;55.596;37.770;2022-10-01T22:29:49;98574.13;;;14.97;85.80
63096;BME280;49184;55.596;37.770;2022-10-01T22:32:20;98597.63;;;15.10;85.70
63096;BME280;49184;55.596;37.770;2022-10-01T22:34:52;98598.34;;;15.07;85.87
63096;BME280;49184;55.596;37.770;2022-10-01T22:37:34;98581.16;;;14.94;85.78
63096;BME280;49184;55.596;37.770;2022-10-01T22:40:28;98584.78;;;14.98;85.43
63096;BME280;49184;55.596;37.770;2022-10-01T22:43:02;98591.38;;;14.94;85.05